East Orleans, Massachusetts
Current Conditions -  °F | °C
As of 6:52 PM on Friday 24 Oct 2014 (Local Time) from KCQX Reporting Station
Overcast Overcast  
Wind Chill: 50°   Ceiling: 1600
Heat Index: 50°   Visibility: 8mi
Dew Point: 49°   Wind: 5mph
Humidity: 96%   Direction: NA
Pressure: 29.72"   Gusts: NA
Location:  41.78°N, 69.97°W
Report Text: KCQX 242252Z AUTO VRB04KT 8SM OVC016 10/09 A2972 RMK AO2 RAB19E33 SLP063 P0000 T01000094
Loading
Personal Weather Stations






























Interactive Weather Map
Tropical Storm Tracking
New forecast layout! Learn more

10-Day Weather Forecast

Advertisements
Track Severe Weather on mobile